Time,TemperatureF,DewpointF,PressureIn,WindDirection,WindDirectionDegrees,WindSpeedMPH,WindSpeedGustMPH,Humidity,HourlyPrecipIn,Conditions,Clouds,dailyrainin,SoftwareType,DateUTC
2013-04-02 00:03:00,39.0,15.0,29.92,WNW,290,1.0,-999.0,37,-99.99,,,-99.99,,2013-04-02 04:03:00,
2013-04-02 00:13:00,39.0,15.0,29.92,WNW,290,1.0,-999.0,37,-99.99,,,-99.99,,2013-04-02 04:13:00,
2013-04-02 00:23:00,38.0,18.0,29.93,NNW,329,0.0,-999.0,43,-99.99,,,-99.99,,2013-04-02 04:23:00,
2013-04-02 00:33:00,38.0,18.0,29.94,NW,315,1.0,-999.0,43,-99.99,,,-99.99,,2013-04-02 04:33:00,
2013-04-02 00:43:00,38.0,18.0,29.94,NW,315,1.0,-999.0,43,-99.99,,,-99.99,,2013-04-02 04:43:00,
2013-04-02 00:53:00,37.0,16.0,29.95,NW,306,1.0,-999.0,42,-99.99,,,-99.99,,2013-04-02 04:53:00,
2013-04-02 01:02:00,37.0,17.0,29.95,NNW,328,1.0,-999.0,43,-99.99,,,-99.99,,2013-04-02 05:02:00,
2013-04-02 01:12:00,37.0,17.0,29.95,NNW,328,1.0,-999.0,43,-99.99,,,-99.99,,2013-04-02 05:12:00,
2013-04-02 01:22:00,36.0,17.0,29.95,NW,316,0.0,-999.0,45,-99.99,,,-99.99,,2013-04-02 05:22:00,
2013-04-02 01:32:00,36.0,17.0,29.96,NW,316,0.0,-999.0,45,-99.99,,,-99.99,,2013-04-02 05:32:00,
2013-04-02 01:43:00,36.0,17.0,29.96,NW,316,0.0,-999.0,45,-99.99,,,-99.99,,2013-04-02 05:43:00,
2013-04-02 01:52:00,36.0,17.0,29.96,NW,317,0.0,-999.0,46,-99.99,,,-99.99,,2013-04-02 05:52:00,
2013-04-02 02:02:00,35.0,17.0,29.96,NW,317,0.0,-999.0,47,-99.99,,,-99.99,,2013-04-02 06:02:00,
2013-04-02 02:12:00,35.0,17.0,29.96,NW,317,0.0,-999.0,47,-99.99,,,-99.99,,2013-04-02 06:12:00,
2013-04-02 02:22:00,35.0,18.0,29.96,NW,317,0.0,-999.0,49,-99.99,,,-99.99,,2013-04-02 06:22:00,
2013-04-02 02:32:00,35.0,18.0,29.96,NW,317,0.0,-999.0,49,-99.99,,,-99.99,,2013-04-02 06:32:00,
2013-04-02 02:42:00,35.0,18.0,29.96,NW,317,0.0,-999.0,49,-99.99,,,-99.99,,2013-04-02 06:42:00,
2013-04-02 02:52:00,34.0,17.0,29.96,NW,317,0.0,-999.0,49,-99.99,,,-99.99,,2013-04-02 06:52:00,
2013-04-02 03:02:00,34.0,16.0,29.95,NW,317,0.0,-999.0,48,-99.99,,,-99.99,,2013-04-02 07:02:00,
2013-04-02 03:13:00,34.0,16.0,29.95,NW,317,0.0,-999.0,48,-99.99,,,-99.99,,2013-04-02 07:13:00,
2013-04-02 03:22:00,33.0,16.0,29.95,NW,317,0.0,-999.0,49,-99.99,,,-99.99,,2013-04-02 07:22:00,
2013-04-02 03:32:00,33.0,16.0,29.95,NW,317,0.0,-999.0,49,-99.99,,,-99.99,,2013-04-02 07:32:00,
2013-04-02 03:43:00,33.0,16.0,29.95,NW,317,0.0,-999.0,49,-99.99,,,-99.99,,2013-04-02 07:43:00,
2013-04-02 03:53:00,33.0,16.0,29.95,NW,317,0.0,-999.0,50,-99.99,,,-99.99,,2013-04-02 07:53:00,
2013-04-02 04:02:00,33.0,16.0,29.95,West,272,0.0,-999.0,49,-99.99,,,-99.99,,2013-04-02 08:02:00,
2013-04-02 04:13:00,33.0,16.0,29.95,West,272,0.0,-999.0,49,-99.99,,,-99.99,,2013-04-02 08:13:00,
2013-04-02 04:22:00,34.0,14.0,29.95,West,278,2.0,-999.0,44,-99.99,,,-99.99,,2013-04-02 08:22:00,
2013-04-02 04:32:00,34.0,14.0,29.95,WNW,299,1.0,-999.0,44,-99.99,,,-99.99,,2013-04-02 08:32:00,
2013-04-02 04:42:00,34.0,14.0,29.95,WNW,299,1.0,-999.0,44,-99.99,,,-99.99,,2013-04-02 08:42:00,
2013-04-02 04:52:00,34.0,14.0,29.96,NW,313,1.0,-999.0,43,-99.99,,,-99.99,,2013-04-02 08:52:00,
2013-04-02 05:02:00,34.0,14.0,29.96,WNW,294,1.0,-999.0,44,-99.99,,,-99.99,,2013-04-02 09:02:00,
2013-04-02 05:12:00,34.0,14.0,29.96,WNW,294,1.0,-999.0,44,-99.99,,,-99.99,,2013-04-02 09:12:00,
2013-04-02 05:22:00,33.0,14.0,29.96,WNW,290,0.0,-999.0,45,-99.99,,,-99.99,,2013-04-02 09:22:00,
2013-04-02 05:32:00,33.0,14.0,29.96,WNW,284,1.0,-999.0,45,-99.99,,,-99.99,,2013-04-02 09:32:00,
2013-04-02 05:43:00,33.0,14.0,29.96,WNW,284,1.0,-999.0,45,-99.99,,,-99.99,,2013-04-02 09:43:00,
2013-04-02 05:53:00,33.0,15.0,29.97,WNW,288,0.0,-999.0,47,-99.99,,,-99.99,,2013-04-02 09:53:00,
2013-04-02 06:03:00,33.0,15.0,29.97,WNW,285,0.0,-999.0,47,-99.99,,,-99.99,,2013-04-02 10:03:00,
2013-04-02 06:13:00,33.0,15.0,29.97,WNW,285,0.0,-999.0,47,-99.99,,,-99.99,,2013-04-02 10:13:00,
2013-04-02 06:23:00,32.0,15.0,29.98,West,265,0.0,-999.0,49,-99.99,,,-99.99,,2013-04-02 10:23:00,
2013-04-02 06:33:00,32.0,16.0,29.98,West,265,0.0,-999.0,51,-99.99,,,-99.99,,2013-04-02 10:33:00,
2013-04-02 06:42:00,32.0,16.0,29.98,West,265,0.0,-999.0,51,-99.99,,,-99.99,,2013-04-02 10:42:00,
2013-04-02 06:53:00,31.0,15.0,29.98,West,260,0.0,-999.0,51,-99.99,,,-99.99,,2013-04-02 10:53:00,
2013-04-02 07:02:00,31.0,15.0,29.98,WSW,247,0.0,-999.0,51,-99.99,,,-99.99,,2013-04-02 11:02:00,
2013-04-02 07:12:00,31.0,15.0,29.98,WSW,247,0.0,-999.0,51,-99.99,,,-99.99,,2013-04-02 11:12:00,
2013-04-02 07:22:00,31.0,15.0,29.99,West,269,0.0,-999.0,52,-99.99,,,-99.99,,2013-04-02 11:22:00,
2013-04-02 07:33:00,31.0,16.0,30.00,West,270,0.0,-999.0,53,-99.99,,,-99.99,,2013-04-02 11:33:00,
2013-04-02 07:43:00,31.0,16.0,30.00,West,270,0.0,-999.0,53,-99.99,,,-99.99,,2013-04-02 11:43:00,
2013-04-02 07:53:00,32.0,16.0,30.01,WNW,286,0.0,-999.0,52,-99.99,,,-99.99,,2013-04-02 11:53:00,
2013-04-02 08:02:00,32.0,16.0,30.01,West,277,0.0,-999.0,51,-99.99,,,-99.99,,2013-04-02 12:02:00,
2013-04-02 08:12:00,32.0,16.0,30.01,West,277,0.0,-999.0,51,-99.99,,,-99.99,,2013-04-02 12:12:00,
2013-04-02 08:23:00,33.0,16.0,30.02,West,262,1.0,-999.0,50,-99.99,,,-99.99,,2013-04-02 12:23:00,
2013-04-02 08:32:00,33.0,17.0,30.03,NW,308,1.0,-999.0,51,-99.99,,,-99.99,,2013-04-02 12:32:00,
2013-04-02 08:42:00,33.0,17.0,30.03,NW,308,1.0,-999.0,51,-99.99,,,-99.99,,2013-04-02 12:42:00,
2013-04-02 08:53:00,35.0,18.0,30.03,West,264,2.0,-999.0,49,-99.99,,,-99.99,,2013-04-02 12:53:00,
2013-04-02 09:02:00,35.0,18.0,30.04,WNW,297,3.0,-999.0,49,-99.99,,,-99.99,,2013-04-02 13:02:00,
2013-04-02 09:12:00,36.0,18.0,30.04,WNW,293,2.0,-999.0,48,-99.99,,,-99.99,,2013-04-02 13:12:00,
2013-04-02 09:22:00,36.0,18.0,30.04,WNW,293,2.0,-999.0,48,-99.99,,,-99.99,,2013-04-02 13:22:00,
2013-04-02 09:33:00,36.0,18.0,30.05,WSW,246,4.0,-999.0,48,-99.99,,,-99.99,,2013-04-02 13:33:00,
2013-04-02 09:42:00,36.0,18.0,30.05,WSW,246,4.0,-999.0,48,-99.99,,,-99.99,,2013-04-02 13:42:00,
2013-04-02 09:52:00,36.0,18.0,30.05,West,268,5.0,-999.0,48,-99.99,,,-99.99,,2013-04-02 13:52:00,
2013-04-02 10:02:00,36.0,17.0,30.05,West,272,4.0,-999.0,46,-99.99,,,-99.99,,2013-04-02 14:02:00,
2013-04-02 10:12:00,36.0,17.0,30.05,West,272,4.0,-999.0,46,-99.99,,,-99.99,,2013-04-02 14:12:00,
2013-04-02 10:23:00,37.0,18.0,30.05,NW,318,3.0,-999.0,45,-99.99,,,-99.99,,2013-04-02 14:23:00,
2013-04-02 10:32:00,37.0,18.0,30.05,West,279,4.0,-999.0,45,-99.99,,,-99.99,,2013-04-02 14:32:00,
2013-04-02 10:42:00,37.0,18.0,30.05,West,279,4.0,-999.0,45,-99.99,,,-99.99,,2013-04-02 14:42:00,
2013-04-02 10:52:00,38.0,18.0,30.05,NW,317,3.0,-999.0,43,-99.99,,,-99.99,,2013-04-02 14:52:00,
2013-04-02 11:02:00,39.0,17.0,30.05,West,279,4.0,-999.0,41,-99.99,,,-99.99,,2013-04-02 15:02:00,
2013-04-02 11:11:00,39.0,17.0,30.05,West,279,4.0,-999.0,41,-99.99,,,-99.99,,2013-04-02 15:11:00,
2013-04-02 11:22:00,38.0,18.0,30.04,NNW,327,6.0,-999.0,43,-99.99,,,-99.99,,2013-04-02 15:22:00,
2013-04-02 11:33:00,39.0,18.0,30.04,WNW,291,4.0,-999.0,43,-99.99,,,-99.99,,2013-04-02 15:33:00,
2013-04-02 11:43:00,39.0,18.0,30.04,WNW,291,4.0,-999.0,43,-99.99,,,-99.99,,2013-04-02 15:43:00,
2013-04-02 11:58:00,39.0,16.0,30.04,West,281,4.0,-999.0,38,-99.99,,,-99.99,,2013-04-02 15:58:00,
2013-04-02 12:04:00,40.0,16.0,30.04,West,270,5.0,-999.0,38,-99.99,,,-99.99,,2013-04-02 16:04:00,
2013-04-02 12:13:00,40.0,16.0,30.04,West,270,5.0,-999.0,38,-99.99,,,-99.99,,2013-04-02 16:13:00,
2013-04-02 12:24:00,41.0,18.0,30.03,NNW,333,5.0,-999.0,39,-99.99,,,-99.99,,2013-04-02 16:24:00,
2013-04-02 12:37:00,41.0,17.0,30.03,NW,323,4.0,-999.0,38,-99.99,,,-99.99,,2013-04-02 16:37:00,
2013-04-02 12:44:00,41.0,17.0,30.03,NW,323,4.0,-999.0,38,-99.99,,,-99.99,,2013-04-02 16:44:00,
2013-04-02 12:53:00,41.0,17.0,30.03,West,275,7.0,-999.0,38,-99.99,,,-99.99,,2013-04-02 16:53:00,
2013-04-02 13:05:00,41.0,17.0,30.03,SW,219,4.0,-999.0,37,-99.99,,,-99.99,,2013-04-02 17:05:00,
2013-04-02 13:13:00,41.0,17.0,30.03,SW,219,4.0,-999.0,37,-99.99,,,-99.99,,2013-04-02 17:13:00,
2013-04-02 13:25:00,42.0,18.0,30.02,WNW,285,3.0,-999.0,37,-99.99,,,-99.99,,2013-04-02 17:25:00,
2013-04-02 13:35:00,42.0,17.0,30.02,NW,306,4.0,-999.0,36,-99.99,,,-99.99,,2013-04-02 17:35:00,
2013-04-02 13:43:00,42.0,17.0,30.02,NW,306,4.0,-999.0,36,-99.99,,,-99.99,,2013-04-02 17:43:00,
2013-04-02 13:56:00,42.0,15.0,30.02,WNW,290,4.0,-999.0,33,-99.99,,,-99.99,,2013-04-02 17:56:00,
2013-04-02 14:04:00,43.0,17.0,30.01,WNW,291,5.0,-999.0,34,-99.99,,,-99.99,,2013-04-02 18:04:00,
2013-04-02 14:13:00,43.0,17.0,30.01,WNW,291,5.0,-999.0,34,-99.99,,,-99.99,,2013-04-02 18:13:00,
2013-04-02 14:23:00,43.0,15.0,30.01,West,270,5.0,-999.0,32,-99.99,,,-99.99,,2013-04-02 18:23:00,
2013-04-02 14:34:00,43.0,16.0,30.01,NW,322,4.0,-999.0,33,-99.99,,,-99.99,,2013-04-02 18:34:00,
2013-04-02 14:43:00,43.0,16.0,30.01,NW,322,4.0,-999.0,33,-99.99,,,-99.99,,2013-04-02 18:43:00,
2013-04-02 14:57:00,44.0,16.0,30.01,WNW,285,3.0,-999.0,32,-99.99,,,-99.99,,2013-04-02 18:57:00,
2013-04-02 15:03:00,44.0,15.0,30.01,West,276,4.0,-999.0,31,-99.99,,,-99.99,,2013-04-02 19:03:00,
2013-04-02 15:13:00,44.0,15.0,30.01,West,276,4.0,-999.0,31,-99.99,,,-99.99,,2013-04-02 19:13:00,
2013-04-02 15:23:00,44.0,17.0,30.00,SW,225,4.0,-999.0,33,-99.99,,,-99.99,,2013-04-02 19:23:00,
2013-04-02 15:34:00,45.0,16.0,30.00,WSW,258,3.0,-999.0,31,-99.99,,,-99.99,,2013-04-02 19:34:00,
2013-04-02 15:45:00,45.0,16.0,30.00,WSW,258,3.0,-999.0,31,-99.99,,,-99.99,,2013-04-02 19:45:00,
2013-04-02 15:57:00,45.0,15.0,30.00,WNW,293,4.0,-999.0,30,-99.99,,,-99.99,,2013-04-02 19:57:00,
2013-04-02 16:03:00,45.0,17.0,30.00,WNW,294,2.0,-999.0,32,-99.99,,,-99.99,,2013-04-02 20:03:00,
2013-04-02 16:14:00,45.0,17.0,30.00,WNW,294,2.0,-999.0,32,-99.99,,,-99.99,,2013-04-02 20:14:00,
2013-04-02 16:33:00,45.0,16.0,29.99,WSW,252,4.0,-999.0,31,-99.99,,,-99.99,,2013-04-02 20:33:00,
2013-04-02 16:44:00,45.0,16.0,29.99,WSW,252,4.0,-999.0,31,-99.99,,,-99.99,,2013-04-02 20:44:00,
2013-04-02 16:55:00,45.0,16.0,29.99,WSW,252,4.0,-999.0,31,-99.99,,,-99.99,,2013-04-02 20:55:00,
2013-04-02 17:04:00,46.0,15.0,29.99,WSW,249,4.0,-999.0,28,-99.99,,,-99.99,,2013-04-02 21:04:00,
2013-04-02 17:13:00,46.0,15.0,29.99,WSW,249,4.0,-999.0,28,-99.99,,,-99.99,,2013-04-02 21:13:00,
2013-04-02 17:23:00,45.0,15.0,30.00,NW,304,3.0,-999.0,29,-99.99,,,-99.99,,2013-04-02 21:23:00,
2013-04-02 17:35:00,45.0,15.0,30.00,NW,306,5.0,-999.0,30,-99.99,,,-99.99,,2013-04-02 21:35:00,
2013-04-02 17:44:00,45.0,15.0,30.00,NW,306,5.0,-999.0,30,-99.99,,,-99.99,,2013-04-02 21:44:00,
2013-04-02 17:56:00,44.0,15.0,30.01,WNW,298,3.0,-999.0,30,-99.99,,,-99.99,,2013-04-02 21:56:00,
2013-04-02 18:04:00,44.0,15.0,30.01,WNW,285,4.0,-999.0,31,-99.99,,,-99.99,,2013-04-02 22:04:00,
2013-04-02 18:14:00,44.0,15.0,30.01,WNW,285,4.0,-999.0,31,-99.99,,,-99.99,,2013-04-02 22:14:00,
2013-04-02 18:24:00,43.0,14.0,30.01,WNW,300,5.0,-999.0,31,-99.99,,,-99.99,,2013-04-02 22:24:00,
2013-04-02 18:33:00,43.0,15.0,30.02,WNW,291,3.0,-999.0,32,-99.99,,,-99.99,,2013-04-02 22:33:00,
2013-04-02 18:43:00,43.0,15.0,30.02,WNW,291,3.0,-999.0,32,-99.99,,,-99.99,,2013-04-02 22:43:00,
2013-04-02 18:54:00,43.0,14.0,30.02,NNW,327,3.0,-999.0,30,-99.99,,,-99.99,,2013-04-02 22:54:00,
2013-04-02 19:03:00,42.0,14.0,30.02,NW,306,3.0,-999.0,31,-99.99,,,-99.99,,2013-04-02 23:03:00,
2013-04-02 19:13:00,42.0,14.0,30.02,NW,306,3.0,-999.0,31,-99.99,,,-99.99,,2013-04-02 23:13:00,
2013-04-02 19:23:00,42.0,14.0,30.03,WNW,300,3.0,-999.0,31,-99.99,,,-99.99,,2013-04-02 23:23:00,
2013-04-02 19:35:00,41.0,13.0,30.03,West,264,2.0,-999.0,32,-99.99,,,-99.99,,2013-04-02 23:35:00,
2013-04-02 19:43:00,41.0,13.0,30.03,West,264,2.0,-999.0,32,-99.99,,,-99.99,,2013-04-02 23:43:00,
2013-04-02 19:54:00,41.0,13.0,30.04,WNW,297,2.0,-999.0,32,-99.99,,,-99.99,,2013-04-02 23:54:00,
2013-04-02 20:04:00,40.0,13.0,30.04,West,275,1.0,-999.0,33,-99.99,,,-99.99,,2013-04-03 00:04:00,
2013-04-02 20:13:00,40.0,13.0,30.04,West,275,1.0,-999.0,33,-99.99,,,-99.99,,2013-04-03 00:13:00,
2013-04-02 20:25:00,40.0,15.0,30.05,West,277,0.0,-999.0,35,-99.99,,,-99.99,,2013-04-03 00:25:00,
2013-04-02 20:34:00,40.0,15.0,30.05,WSW,254,0.0,-999.0,35,-99.99,,,-99.99,,2013-04-03 00:34:00,
2013-04-02 20:47:00,40.0,15.0,30.05,WSW,254,0.0,-999.0,35,-99.99,,,-99.99,,2013-04-03 00:47:00,
2013-04-02 20:57:00,39.0,14.0,30.06,West,265,1.0,-999.0,35,-99.99,,,-99.99,,2013-04-03 00:57:00,
2013-04-02 21:04:00,39.0,14.0,30.07,WNW,282,1.0,-999.0,35,-99.99,,,-99.99,,2013-04-03 01:04:00,
2013-04-02 21:13:00,39.0,14.0,30.07,WNW,282,1.0,-999.0,35,-99.99,,,-99.99,,2013-04-03 01:13:00,
2013-04-02 21:23:00,39.0,15.0,30.08,WSW,255,1.0,-999.0,37,-99.99,,,-99.99,,2013-04-03 01:23:00,
2013-04-02 21:33:00,39.0,14.0,30.08,SW,232,1.0,-999.0,36,-99.99,,,-99.99,,2013-04-03 01:33:00,
2013-04-02 21:42:00,39.0,14.0,30.08,SW,232,1.0,-999.0,36,-99.99,,,-99.99,,2013-04-03 01:42:00,
2013-04-02 21:54:00,39.0,14.0,30.09,West,274,1.0,-999.0,36,-99.99,,,-99.99,,2013-04-03 01:54:00,
2013-04-02 22:13:00,38.0,14.0,30.09,West,264,1.0,-999.0,37,-99.99,,,-99.99,,2013-04-03 02:13:00,
2013-04-02 22:24:00,38.0,15.0,30.10,West,279,2.0,-999.0,39,-99.99,,,-99.99,,2013-04-03 02:24:00,
2013-04-02 22:34:00,38.0,15.0,30.10,West,275,1.0,-999.0,39,-99.99,,,-99.99,,2013-04-03 02:34:00,
2013-04-02 22:44:00,38.0,15.0,30.10,West,275,1.0,-999.0,39,-99.99,,,-99.99,,2013-04-03 02:44:00,
2013-04-02 22:53:00,38.0,16.0,30.10,SW,227,1.0,-999.0,40,-99.99,,,-99.99,,2013-04-03 02:53:00,
2013-04-02 23:05:00,37.0,16.0,30.11,West,269,0.0,-999.0,41,-99.99,,,-99.99,,2013-04-03 03:05:00,
2013-04-02 23:14:00,37.0,16.0,30.11,West,269,0.0,-999.0,41,-99.99,,,-99.99,,2013-04-03 03:14:00,
2013-04-02 23:23:00,37.0,16.0,30.10,West,265,0.0,-999.0,42,-99.99,,,-99.99,,2013-04-03 03:23:00,
2013-04-02 23:37:00,37.0,17.0,30.10,WSW,247,0.0,-999.0,43,-99.99,,,-99.99,,2013-04-03 03:37:00,
2013-04-02 23:44:00,37.0,17.0,30.10,WSW,247,0.0,-999.0,43,-99.99,,,-99.99,,2013-04-03 03:44:00,
2013-04-02 23:54:00,36.0,16.0,30.10,West,277,0.0,-999.0,43,-99.99,,,-99.99,,2013-04-03 03:54:00,